createdAt,value
2022-09-22T00:00:30.873Z,32.05
2022-09-22T00:01:33.724Z,33.42
2022-09-22T00:02:36.626Z,32.82
2022-09-22T00:03:39.307Z,35.92
2022-09-22T00:04:42.391Z,27.96
2022-09-22T00:05:45.055Z,27.93
2022-09-22T00:08:04.629Z,21.47
2022-09-22T00:09:07.620Z,24.96
2022-09-22T00:10:10.478Z,21.36
2022-09-22T00:11:13.548Z,23.16
2022-09-22T00:12:16.419Z,20.25
2022-09-22T00:13:19.526Z,21.35
2022-09-22T00:14:22.492Z,21.34
2022-09-22T00:15:25.453Z,22.30
2022-09-22T00:16:28.593Z,21.52
2022-09-22T00:17:31.208Z,23.15
2022-09-22T00:18:33.780Z,22.68
2022-09-22T00:20:52.279Z,27.77
2022-09-22T00:21:54.831Z,26.34
2022-09-22T00:22:57.568Z,23.04
2022-09-22T00:24:00.359Z,24.79
2022-09-22T00:25:03.143Z,21.32
2022-09-22T00:26:05.679Z,22.93
2022-09-22T00:27:08.568Z,22.17
2022-09-22T00:28:11.126Z,24.64
2022-09-22T00:30:31.728Z,22.85
2022-09-22T00:31:34.624Z,22.21
2022-09-22T00:32:37.472Z,22.05
2022-09-22T00:33:40.033Z,23.69
2022-09-22T00:34:42.701Z,24.91
2022-09-22T00:35:45.570Z,19.92
2022-09-22T00:36:48.671Z,21.24
2022-09-22T00:37:51.427Z,17.54
2022-09-22T00:38:57.055Z,23.64
2022-09-22T00:40:00.368Z,23.16
2022-09-22T00:41:03.329Z,24.92
2022-09-22T00:42:06.204Z,22.11
2022-09-22T00:43:09.179Z,26.22
2022-09-22T00:44:12.051Z,26.69
2022-09-22T00:45:14.960Z,25.37
2022-09-22T00:46:17.983Z,27.48
2022-09-22T00:47:20.784Z,27.96
2022-09-22T00:48:23.971Z,29.33
2022-09-22T00:49:26.732Z,29.38
2022-09-22T00:50:29.918Z,27.07
2022-09-22T00:51:32.595Z,28.35
2022-09-22T00:52:35.368Z,24.79
2022-09-22T00:53:37.920Z,22.97
2022-09-22T00:54:40.740Z,28.28
2022-09-22T00:55:43.273Z,28.20
2022-09-22T00:56:46.039Z,29.11
2022-09-22T00:57:48.810Z,27.08
2022-09-22T00:58:51.577Z,23.27
2022-09-22T00:59:54.259Z,26.77
2022-09-22T01:00:56.989Z,28.82
2022-09-22T01:01:59.653Z,22.47
2022-09-22T01:03:02.493Z,23.53
2022-09-22T01:04:05.145Z,22.92
2022-09-22T01:05:08.218Z,24.60
2022-09-22T01:06:11.624Z,23.57
2022-09-22T01:07:15.199Z,26.90
2022-09-22T01:08:18.375Z,20.48
2022-09-22T01:09:21.562Z,22.09
2022-09-22T01:10:24.742Z,17.95
2022-09-22T01:11:27.609Z,17.32
2022-09-22T01:12:31.211Z,15.72
2022-09-22T01:13:34.394Z,19.75
2022-09-22T01:14:40.141Z,20.21
2022-09-22T01:15:43.464Z,20.17
2022-09-22T01:16:46.305Z,17.62
2022-09-22T01:17:50.191Z,17.97
2022-09-22T01:18:53.581Z,22.13
2022-09-22T01:19:56.872Z,22.80
2022-09-22T01:20:59.844Z,21.76
2022-09-22T01:22:03.023Z,22.71
2022-09-22T01:23:06.625Z,22.82
2022-09-22T01:24:09.492Z,24.48
2022-09-22T01:25:12.871Z,16.85
2022-09-22T01:26:16.005Z,19.03
2022-09-22T01:27:21.051Z,21.17
2022-09-22T01:28:24.050Z,18.93
2022-09-22T01:29:26.724Z,21.22
2022-09-22T01:30:35.166Z,22.89
2022-09-22T01:31:38.468Z,21.23
2022-09-22T01:32:41.284Z,22.99
2022-09-22T01:33:44.069Z,21.60
2022-09-22T01:34:47.648Z,20.80
2022-09-22T01:35:51.443Z,20.85
2022-09-22T01:36:56.060Z,18.92
2022-09-22T01:37:59.543Z,21.15
2022-09-22T01:39:02.638Z,23.58
2022-09-22T01:40:05.854Z,18.62
2022-09-22T01:41:09.207Z,22.55
2022-09-22T01:42:12.710Z,27.37
2022-09-22T01:43:16.184Z,22.18
2022-09-22T01:44:19.053Z,23.49
2022-09-22T01:45:22.970Z,26.14
2022-09-22T01:46:25.890Z,22.27
2022-09-22T01:47:28.593Z,22.02
2022-09-22T01:48:31.264Z,21.79
2022-09-22T01:49:34.248Z,17.92
2022-09-22T01:50:37.217Z,19.56
2022-09-22T01:51:40.609Z,18.64
2022-09-22T01:52:43.895Z,19.05
2022-09-22T01:53:47.182Z,15.92
2022-09-22T01:54:50.373Z,17.05
2022-09-22T01:55:59.331Z,15.55
2022-09-22T01:57:02.771Z,15.25
2022-09-22T01:58:05.739Z,11.52
2022-09-22T01:59:08.702Z,11.43
2022-09-22T02:00:11.810Z,12.38
2022-09-22T02:01:15.961Z,11.44
2022-09-22T02:02:19.143Z,9.73
2022-09-22T02:03:22.684Z,10.18
2022-09-22T02:04:25.850Z,10.04
2022-09-22T02:05:28.729Z,10.82
2022-09-22T02:06:32.334Z,12.21
2022-09-22T02:07:35.201Z,8.53
2022-09-22T02:08:38.311Z,10.52
2022-09-22T02:09:41.985Z,12.55
2022-09-22T02:10:45.304Z,12.73
2022-09-22T02:11:48.229Z,10.88
2022-09-22T02:12:52.035Z,10.86
2022-09-22T02:13:55.207Z,12.83
2022-09-22T02:14:58.421Z,9.62
2022-09-22T02:16:01.730Z,10.45
2022-09-22T02:17:04.343Z,11.29
2022-09-22T02:18:07.845Z,13.20
2022-09-22T02:19:13.481Z,9.65
2022-09-22T02:20:16.245Z,10.10
2022-09-22T02:21:19.834Z,10.70
2022-09-22T02:22:23.022Z,11.91
2022-09-22T02:23:26.506Z,10.39
2022-09-22T02:24:30.310Z,9.90
2022-09-22T02:25:33.272Z,11.69
2022-09-22T02:26:36.464Z,12.96
2022-09-22T02:27:39.343Z,11.35
2022-09-22T02:28:42.513Z,12.47
2022-09-22T02:29:45.600Z,12.58
2022-09-22T02:31:10.460Z,14.00
2022-09-22T02:31:53.883Z,11.99
2022-09-22T02:32:58.409Z,13.75
2022-09-22T02:34:01.489Z,13.87
2022-09-22T02:35:04.798Z,12.47
2022-09-22T02:36:08.282Z,15.51
2022-09-22T02:37:11.461Z,14.97
2022-09-22T02:38:17.295Z,14.61
2022-09-22T02:39:20.483Z,14.41
2022-09-22T02:40:24.024Z,15.29
2022-09-22T02:41:26.948Z,19.07
2022-09-22T02:42:30.145Z,18.50
2022-09-22T02:43:33.621Z,18.30
2022-09-22T02:44:37.120Z,14.85
2022-09-22T02:45:47.767Z,14.75
2022-09-22T02:46:51.152Z,13.21
2022-09-22T02:47:54.453Z,15.67
2022-09-22T02:48:57.818Z,16.30
2022-09-22T02:50:02.347Z,16.42
2022-09-22T02:51:05.521Z,19.99
2022-09-22T02:52:09.569Z,16.26
2022-09-22T02:53:12.912Z,16.74
2022-09-22T02:54:16.598Z,15.39
2022-09-22T02:55:19.580Z,16.79
2022-09-22T02:56:23.981Z,18.86
2022-09-22T02:57:27.691Z,18.60
2022-09-22T02:58:32.088Z,22.15
2022-09-22T02:59:37.002Z,18.60
2022-09-22T03:00:40.147Z,16.62
2022-09-22T03:01:42.803Z,16.55
2022-09-22T03:02:45.644Z,12.90
2022-09-22T03:04:00.782Z,12.31
2022-09-22T03:05:04.270Z,15.84
2022-09-22T03:06:06.960Z,15.44
2022-09-22T03:07:10.043Z,16.07
2022-09-22T03:08:13.112Z,17.95
2022-09-22T03:09:16.204Z,14.85
2022-09-22T03:10:19.280Z,12.18
2022-09-22T03:11:22.367Z,12.84
2022-09-22T03:12:25.378Z,16.05
2022-09-22T03:13:28.710Z,16.38
2022-09-22T03:14:32.006Z,16.08
2022-09-22T03:15:34.952Z,17.75
2022-09-22T03:16:40.931Z,17.88
2022-09-22T03:17:43.811Z,12.57
2022-09-22T03:18:46.692Z,17.95
2022-09-22T03:19:49.247Z,18.49
2022-09-22T03:20:52.237Z,17.27
2022-09-22T03:21:55.505Z,14.61
2022-09-22T03:22:58.381Z,21.41
2022-09-22T03:24:01.562Z,19.68
2022-09-22T03:25:04.327Z,15.45
2022-09-22T03:26:07.429Z,12.27
2022-09-22T03:27:10.723Z,13.45
2022-09-22T03:28:19.320Z,16.39
2022-09-22T03:29:22.075Z,16.98
2022-09-22T03:30:24.945Z,18.67
2022-09-22T03:31:27.930Z,22.46
2022-09-22T03:32:30.803Z,18.71
2022-09-22T03:33:33.473Z,19.09
2022-09-22T03:34:36.344Z,17.03
2022-09-22T03:35:38.919Z,18.77
2022-09-22T03:36:41.588Z,17.27
2022-09-22T03:37:44.164Z,15.16
2022-09-22T03:38:46.737Z,13.87
2022-09-22T03:39:49.500Z,17.38
2022-09-22T03:40:52.486Z,14.32
2022-09-22T03:41:55.756Z,14.66
2022-09-22T03:42:58.738Z,15.99
2022-09-22T03:44:04.474Z,16.68
2022-09-22T03:45:07.554Z,17.07
2022-09-22T03:46:10.493Z,19.15
2022-09-22T03:47:13.304Z,17.40
2022-09-22T03:48:16.284Z,16.96
2022-09-22T03:49:19.260Z,18.17
2022-09-22T03:50:22.134Z,14.55
2022-09-22T03:51:24.705Z,15.72
2022-09-22T03:52:27.270Z,15.19
2022-09-22T03:53:30.044Z,16.23
2022-09-22T03:54:32.823Z,19.46
2022-09-22T03:55:35.486Z,19.42
2022-09-22T03:56:38.140Z,19.68
2022-09-22T03:57:40.811Z,18.24
2022-09-22T03:58:43.479Z,20.43
2022-09-22T03:59:47.104Z,18.98
2022-09-22T04:00:49.644Z,15.91
2022-09-22T04:01:56.102Z,15.38
2022-09-22T04:02:56.531Z,19.47
2022-09-22T04:03:59.392Z,16.62
2022-09-22T04:05:02.169Z,17.57
2022-09-22T04:06:05.457Z,17.37
2022-09-22T04:07:08.533Z,18.89
2022-09-22T04:08:11.358Z,20.05
2022-09-22T04:09:14.287Z,20.20
2022-09-22T04:10:17.363Z,18.74
2022-09-22T04:11:20.448Z,18.41
2022-09-22T04:12:23.361Z,18.03
2022-09-22T04:13:26.088Z,17.04
2022-09-22T04:14:29.166Z,13.98
2022-09-22T04:15:31.943Z,16.51
2022-09-22T04:16:35.098Z,21.17
2022-09-22T04:17:42.226Z,17.38
2022-09-22T04:18:46.208Z,18.24
2022-09-22T04:19:50.201Z,17.43
2022-09-22T04:20:53.072Z,13.71
2022-09-22T04:21:57.330Z,16.82
2022-09-22T04:23:00.250Z,15.43
2022-09-22T04:24:03.242Z,13.39
2022-09-22T04:25:05.898Z,18.92
2022-09-22T04:26:08.774Z,19.09
2022-09-22T04:27:20.287Z,23.75
2022-09-22T04:28:16.070Z,15.73
2022-09-22T04:29:18.930Z,17.62
2022-09-22T04:30:23.457Z,18.12
2022-09-22T04:31:28.083Z,16.12
2022-09-22T04:32:30.728Z,16.17
2022-09-22T04:33:33.402Z,17.44
2022-09-22T04:34:36.281Z,15.34
2022-09-22T04:35:38.960Z,15.60
2022-09-22T04:36:41.825Z,16.36
2022-09-22T04:37:44.800Z,19.78
2022-09-22T04:38:47.478Z,16.79
2022-09-22T04:39:50.549Z,17.12
2022-09-22T04:40:53.320Z,17.62
2022-09-22T04:41:56.195Z,14.67
2022-09-22T04:42:59.482Z,16.82
2022-09-22T04:44:02.565Z,13.56
2022-09-22T04:45:05.548Z,17.76
2022-09-22T04:46:08.418Z,18.28
2022-09-22T04:47:11.287Z,19.21
2022-09-22T04:48:14.264Z,16.46
2022-09-22T04:49:17.140Z,16.14
2022-09-22T04:50:20.122Z,22.16
2022-09-22T04:51:22.995Z,18.58
2022-09-22T04:52:25.862Z,18.56
2022-09-22T04:53:28.634Z,16.84
2022-09-22T04:54:31.412Z,23.53
2022-09-22T04:55:34.181Z,16.07
2022-09-22T04:56:37.054Z,24.42
2022-09-22T04:59:00.626Z,17.61
2022-09-22T05:00:03.900Z,13.84
2022-09-22T05:01:07.016Z,17.42
2022-09-22T05:02:10.180Z,15.75
2022-09-22T05:03:13.317Z,15.45
2022-09-22T05:04:16.322Z,19.02
2022-09-22T05:05:19.413Z,16.06
2022-09-22T05:06:22.387Z,16.38
2022-09-22T05:07:25.461Z,18.27
2022-09-22T05:08:28.548Z,17.09
2022-09-22T05:09:31.219Z,17.31
2022-09-22T05:10:36.238Z,18.85
2022-09-22T05:11:38.931Z,17.17
2022-09-22T05:12:41.587Z,19.33
2022-09-22T05:13:44.242Z,21.37
2022-09-22T05:14:47.021Z,18.49
2022-09-22T05:15:49.944Z,20.29
2022-09-22T05:16:52.967Z,20.76
2022-09-22T05:17:55.748Z,19.28
2022-09-22T05:18:59.257Z,16.13
2022-09-22T05:20:01.900Z,17.25
2022-09-22T05:21:04.575Z,17.60
2022-09-22T05:22:07.252Z,21.27
2022-09-22T05:23:10.219Z,16.59
2022-09-22T05:24:13.863Z,19.61
2022-09-22T05:25:16.597Z,23.13
2022-09-22T05:26:24.332Z,20.57
2022-09-22T05:27:27.049Z,15.02
2022-09-22T05:28:29.929Z,16.56
2022-09-22T05:29:32.591Z,18.50
2022-09-22T05:30:35.459Z,14.54
2022-09-22T05:31:38.307Z,17.72
2022-09-22T05:32:40.923Z,19.14
2022-09-22T05:33:43.685Z,19.88
2022-09-22T05:34:46.476Z,17.37
2022-09-22T05:35:49.224Z,15.36
2022-09-22T05:36:52.801Z,13.78
2022-09-22T05:37:55.389Z,17.41
2022-09-22T05:38:57.990Z,15.05
2022-09-22T05:40:00.313Z,15.42
2022-09-22T05:41:02.992Z,14.14
2022-09-22T05:42:10.773Z,17.89
2022-09-22T05:43:09.549Z,16.39
2022-09-22T05:44:12.081Z,15.90
2022-09-22T05:45:14.546Z,13.78
2022-09-22T05:46:17.105Z,16.77
2022-09-22T05:47:19.487Z,15.73
2022-09-22T05:48:22.054Z,18.23
2022-09-22T05:49:24.553Z,16.70
2022-09-22T05:50:27.075Z,17.56
2022-09-22T05:51:29.502Z,14.96
2022-09-22T05:52:31.842Z,16.96
2022-09-22T05:53:34.153Z,19.79
2022-09-22T05:54:36.772Z,16.02
2022-09-22T05:55:39.303Z,15.85
2022-09-22T05:56:41.762Z,20.48
2022-09-22T05:57:45.160Z,18.02
2022-09-22T05:58:52.768Z,21.13
2022-09-22T05:59:55.318Z,20.84
2022-09-22T06:00:57.854Z,19.75
2022-09-22T06:02:01.593Z,17.82
2022-09-22T06:03:04.512Z,19.85
2022-09-22T06:04:07.080Z,18.42
2022-09-22T06:05:17.421Z,17.30
2022-09-22T06:06:18.268Z,20.66
2022-09-22T06:07:20.589Z,20.00
2022-09-22T06:08:23.088Z,18.53
2022-09-22T06:09:25.559Z,20.01
2022-09-22T06:10:27.900Z,18.51
2022-09-22T06:11:38.888Z,19.40
2022-09-22T06:12:41.420Z,17.94
2022-09-22T06:13:43.682Z,21.18
2022-09-22T06:14:46.044Z,20.07
2022-09-22T06:15:48.348Z,19.32
2022-09-22T06:16:50.710Z,20.25
2022-09-22T06:17:53.264Z,17.02
2022-09-22T06:18:55.745Z,14.80
2022-09-22T06:19:57.988Z,13.72
2022-09-22T06:21:00.479Z,11.38
2022-09-22T06:22:03.063Z,16.51
2022-09-22T06:23:07.393Z,14.17
2022-09-22T06:24:09.903Z,14.17
2022-09-22T06:25:12.234Z,14.93
2022-09-22T06:26:29.899Z,16.14
2022-09-22T06:27:32.162Z,14.45
2022-09-22T06:28:34.713Z,15.23
2022-09-22T06:29:36.998Z,16.74
2022-09-22T06:30:40.575Z,15.53
2022-09-22T06:31:43.092Z,19.53
2022-09-22T06:32:49.540Z,22.31
2022-09-22T06:33:53.224Z,16.20
2022-09-22T06:34:55.764Z,16.35
2022-09-22T06:35:58.078Z,15.90
2022-09-22T06:37:00.636Z,13.18
2022-09-22T06:38:05.213Z,15.40
2022-09-22T06:39:07.719Z,15.36
2022-09-22T06:40:14.038Z,16.56
2022-09-22T06:41:14.123Z,17.18
2022-09-22T06:42:26.725Z,14.89
2022-09-22T06:43:29.162Z,14.60
2022-09-22T06:44:32.027Z,17.10
2022-09-22T06:45:34.698Z,18.96
2022-09-22T06:46:37.287Z,14.15
2022-09-22T06:47:39.503Z,17.02
2022-09-22T06:48:41.922Z,14.63
2022-09-22T06:49:46.031Z,15.97
2022-09-22T06:50:48.331Z,18.46
2022-09-22T06:51:50.550Z,20.45
2022-09-22T06:52:52.967Z,19.97
2022-09-22T06:53:55.212Z,19.74
2022-09-22T06:54:57.452Z,14.76
2022-09-22T06:56:00.827Z,17.78
2022-09-22T06:57:03.199Z,18.08
2022-09-22T06:58:07.320Z,17.83
2022-09-22T06:59:10.616Z,16.11
2022-09-22T07:00:18.033Z,15.83
2022-09-22T07:01:32.063Z,17.81
2022-09-22T07:02:34.816Z,19.01
2022-09-22T07:03:37.143Z,22.39
2022-09-22T07:04:39.584Z,16.95
2022-09-22T07:05:42.076Z,19.15
2022-09-22T07:06:44.712Z,16.23
2022-09-22T07:07:46.971Z,20.36
2022-09-22T07:08:49.227Z,20.71
2022-09-22T07:09:53.340Z,20.06
2022-09-22T07:10:56.159Z,20.94
2022-09-22T07:11:58.435Z,19.83
2022-09-22T07:13:00.999Z,21.31
2022-09-22T07:14:03.709Z,19.83
2022-09-22T07:15:05.931Z,19.55
2022-09-22T07:16:08.704Z,22.51
2022-09-22T07:17:11.437Z,26.56
2022-09-22T07:18:15.493Z,20.35
2022-09-22T07:19:19.914Z,20.23
2022-09-22T07:20:22.408Z,21.09
2022-09-22T07:21:24.948Z,23.05
2022-09-22T07:22:27.953Z,21.54
2022-09-22T07:23:31.511Z,20.01
2022-09-22T07:24:34.091Z,21.64
2022-09-22T07:25:36.752Z,26.25
2022-09-22T07:26:41.465Z,30.48
2022-09-22T07:27:43.701Z,22.97
2022-09-22T07:28:45.894Z,22.74
2022-09-22T07:29:48.139Z,24.24
2022-09-22T07:30:50.364Z,21.93
2022-09-22T07:31:52.796Z,23.86
2022-09-22T07:32:55.127Z,18.00
2022-09-22T07:33:57.596Z,26.31
2022-09-22T07:35:00.142Z,24.07
2022-09-22T07:36:02.643Z,24.19
2022-09-22T07:37:05.070Z,25.07
2022-09-22T07:38:07.538Z,21.08
2022-09-22T07:39:10.024Z,21.80
2022-09-22T07:40:15.284Z,23.02
2022-09-22T07:41:17.873Z,24.64
2022-09-22T07:42:20.328Z,19.42
2022-09-22T07:43:22.591Z,25.94
2022-09-22T07:44:24.868Z,27.59
2022-09-22T07:45:27.213Z,26.60
2022-09-22T07:46:29.599Z,25.38
2022-09-22T07:47:31.939Z,24.03
2022-09-22T07:48:34.278Z,21.26
2022-09-22T07:49:36.699Z,22.28
2022-09-22T07:50:39.339Z,20.96
2022-09-22T07:51:41.629Z,19.15
2022-09-22T07:52:43.870Z,20.94
2022-09-22T07:53:46.113Z,12.93
2022-09-22T07:54:48.383Z,17.02
2022-09-22T07:55:50.635Z,16.77
2022-09-22T07:56:53.001Z,15.66
2022-09-22T07:57:55.231Z,19.96
2022-09-22T07:58:57.582Z,15.64
2022-09-22T07:59:59.917Z,14.11
2022-09-22T08:01:02.264Z,19.23
2022-09-22T08:02:04.486Z,15.99
2022-09-22T08:03:06.816Z,12.87
2022-09-22T08:04:09.067Z,14.35
2022-09-22T08:05:11.336Z,12.23
2022-09-22T08:06:13.547Z,12.73
2022-09-22T08:07:15.751Z,9.71
2022-09-22T08:08:18.073Z,9.08
2022-09-22T08:09:20.400Z,13.44
2022-09-22T08:10:22.598Z,10.23
2022-09-22T08:11:24.878Z,10.43
2022-09-22T08:12:27.133Z,11.21
2022-09-22T08:13:29.366Z,10.93
2022-09-22T08:14:31.651Z,10.30
2022-09-22T08:15:33.915Z,11.69
2022-09-22T08:16:36.721Z,12.25
2022-09-22T08:17:39.028Z,13.92
2022-09-22T08:18:41.492Z,13.98
2022-09-22T08:19:43.697Z,15.02
2022-09-22T08:20:46.014Z,11.40
2022-09-22T08:21:49.666Z,14.46
2022-09-22T08:22:52.209Z,14.32
2022-09-22T08:23:54.458Z,13.89
2022-09-22T08:24:56.734Z,15.32
2022-09-22T08:25:59.321Z,16.32
2022-09-22T08:27:01.801Z,11.47
2022-09-22T08:28:04.339Z,15.91
2022-09-22T08:29:06.609Z,18.58
2022-09-22T08:30:08.869Z,11.88
2022-09-22T08:31:12.535Z,12.28
2022-09-22T08:32:14.768Z,14.14
2022-09-22T08:33:17.031Z,15.54
2022-09-22T08:34:20.293Z,15.58
2022-09-22T08:35:22.607Z,14.94
2022-09-22T08:36:25.451Z,14.25
2022-09-22T08:37:27.675Z,14.27
2022-09-22T08:38:30.174Z,10.11
2022-09-22T08:39:32.424Z,12.40
2022-09-22T08:40:35.053Z,12.74
2022-09-22T08:41:37.399Z,11.73
2022-09-22T08:42:39.649Z,11.71
2022-09-22T08:43:41.892Z,11.50
2022-09-22T08:44:44.409Z,14.73
2022-09-22T08:45:46.860Z,11.42
2022-09-22T08:46:49.197Z,12.74
2022-09-22T08:47:51.480Z,11.81
2022-09-22T08:48:53.831Z,11.00
2022-09-22T08:49:56.062Z,10.68
2022-09-22T08:50:58.569Z,10.26
2022-09-22T08:52:00.828Z,12.35
2022-09-22T08:53:03.107Z,10.94
2022-09-22T08:54:05.542Z,9.10
2022-09-22T08:55:08.183Z,10.59
2022-09-22T08:56:10.777Z,11.64
2022-09-22T08:57:13.326Z,10.97
2022-09-22T08:58:15.773Z,8.91
2022-09-22T08:59:18.008Z,10.20
2022-09-22T09:00:20.289Z,11.40
2022-09-22T09:01:22.682Z,13.30
2022-09-22T09:02:25.101Z,10.82
2022-09-22T09:03:27.384Z,10.59
2022-09-22T09:04:29.649Z,10.05
2022-09-22T09:05:31.884Z,11.59
2022-09-22T09:06:34.329Z,10.35
2022-09-22T09:07:36.597Z,13.66
2022-09-22T09:08:38.891Z,14.15
2022-09-22T09:09:41.180Z,10.67
2022-09-22T09:10:43.623Z,10.24
2022-09-22T09:11:45.887Z,12.42
2022-09-22T09:12:48.140Z,10.81
2022-09-22T09:13:50.439Z,12.63
2022-09-22T09:14:52.791Z,10.16
2022-09-22T09:15:55.273Z,14.44
2022-09-22T09:16:57.787Z,15.58
2022-09-22T09:18:00.237Z,11.81
2022-09-22T09:19:02.475Z,12.89
2022-09-22T09:20:04.963Z,13.51
2022-09-22T09:21:07.495Z,12.82
2022-09-22T09:22:10.025Z,13.32
2022-09-22T09:23:12.388Z,12.38
2022-09-22T09:25:22.422Z,14.52
2022-09-22T09:26:22.558Z,15.26
2022-09-22T09:27:25.009Z,13.80
2022-09-22T09:28:28.100Z,12.83
2022-09-22T09:29:30.440Z,13.41
2022-09-22T09:30:32.871Z,12.95
2022-09-22T09:31:35.195Z,12.61
2022-09-22T09:32:38.050Z,15.49
2022-09-22T09:33:40.291Z,14.28
2022-09-22T09:34:42.931Z,11.71
2022-09-22T09:35:45.194Z,13.67
2022-09-22T09:36:47.482Z,13.83
2022-09-22T09:37:49.988Z,13.69
2022-09-22T09:38:52.253Z,14.15
2022-09-22T09:39:54.482Z,11.54
2022-09-22T09:40:56.736Z,16.67
2022-09-22T09:41:58.990Z,17.63
2022-09-22T09:43:03.078Z,16.77
2022-09-22T09:44:05.362Z,13.83
2022-09-22T09:45:07.667Z,15.54
2022-09-22T09:46:09.899Z,15.49
2022-09-22T09:47:12.336Z,14.74
2022-09-22T09:48:14.906Z,14.38
2022-09-22T09:49:17.375Z,15.95
2022-09-22T09:50:19.864Z,19.01
2022-09-22T09:51:22.279Z,17.23
2022-09-22T09:52:24.772Z,18.47
2022-09-22T09:53:27.232Z,17.55
2022-09-22T09:54:29.508Z,17.06
2022-09-22T09:55:31.773Z,14.28
2022-09-22T09:56:34.313Z,17.24
2022-09-22T09:57:36.636Z,18.39
2022-09-22T09:58:39.225Z,12.68
2022-09-22T09:59:41.460Z,15.28
2022-09-22T10:00:43.928Z,19.57
2022-09-22T10:01:46.235Z,16.33
2022-09-22T10:02:48.507Z,16.31
2022-09-22T10:03:50.944Z,14.38
2022-09-22T10:04:53.183Z,16.22
2022-09-22T10:05:55.394Z,19.31
2022-09-22T10:07:01.454Z,18.46
2022-09-22T10:08:01.506Z,19.41
2022-09-22T10:09:03.843Z,19.58
2022-09-22T10:10:06.066Z,20.62
2022-09-22T10:11:08.443Z,15.90
2022-09-22T10:12:10.804Z,18.08
2022-09-22T10:13:16.014Z,21.93
2022-09-22T10:14:16.930Z,20.59
2022-09-22T10:15:19.446Z,19.43
2022-09-22T10:16:22.205Z,19.14
2022-09-22T10:17:24.755Z,16.95
2022-09-22T10:18:27.196Z,18.17
2022-09-22T10:19:29.494Z,21.74
2022-09-22T10:20:31.808Z,20.54
2022-09-22T10:21:34.014Z,25.61
2022-09-22T10:22:39.750Z,21.77
2022-09-22T10:23:40.141Z,21.32
2022-09-22T10:24:42.448Z,21.77
2022-09-22T10:25:44.688Z,20.86
2022-09-22T10:26:47.025Z,21.60
2022-09-22T10:27:49.321Z,18.93
2022-09-22T10:28:51.581Z,20.79
2022-09-22T10:29:53.890Z,19.36
2022-09-22T10:30:56.416Z,17.32
2022-09-22T10:31:58.928Z,18.49
2022-09-22T10:33:01.432Z,23.54
2022-09-22T10:34:03.994Z,23.93
2022-09-22T10:35:06.609Z,19.48
2022-09-22T10:36:11.847Z,18.44
2022-09-22T10:37:14.235Z,20.26
2022-09-22T10:38:16.713Z,23.70
2022-09-22T10:39:18.984Z,19.65
2022-09-22T10:40:21.498Z,21.05
2022-09-22T10:41:23.873Z,18.31
2022-09-22T10:42:26.130Z,15.02
2022-09-22T10:43:28.361Z,19.12
2022-09-22T10:44:39.638Z,21.76
2022-09-22T10:45:34.644Z,18.07
2022-09-22T10:46:37.018Z,12.39
2022-09-22T10:47:39.360Z,16.00
2022-09-22T10:48:41.632Z,11.57
2022-09-22T10:49:43.863Z,11.84
2022-09-22T10:50:46.147Z,13.16
2022-09-22T10:51:48.383Z,14.63
2022-09-22T10:52:50.696Z,11.68
2022-09-22T10:53:52.968Z,13.29
2022-09-22T10:54:55.215Z,14.46
2022-09-22T10:55:57.816Z,16.34
2022-09-22T10:57:00.035Z,12.23
2022-09-22T10:58:02.340Z,16.64
2022-09-22T10:59:04.550Z,15.76
2022-09-22T11:00:07.012Z,17.92
2022-09-22T11:01:09.611Z,19.96
2022-09-22T11:02:12.118Z,16.45
2022-09-22T11:03:14.333Z,14.64
2022-09-22T11:04:16.635Z,21.08
2022-09-22T11:05:18.895Z,15.98
2022-09-22T11:06:21.420Z,14.47
2022-09-22T11:07:24.071Z,17.78
2022-09-22T11:08:26.667Z,14.67
2022-09-22T11:09:28.997Z,14.01
2022-09-22T11:10:31.282Z,15.91
2022-09-22T11:11:35.936Z,20.86
2022-09-22T11:12:37.956Z,16.00
2022-09-22T11:13:40.210Z,19.82
2022-09-22T11:14:42.461Z,16.84
2022-09-22T11:15:44.769Z,16.01
2022-09-22T11:16:47.553Z,16.51
2022-09-22T11:17:49.780Z,16.72
2022-09-22T11:18:51.994Z,12.21
2022-09-22T11:19:54.272Z,12.53
2022-09-22T11:20:56.565Z,13.60
2022-09-22T11:21:58.837Z,15.20
2022-09-22T11:23:01.093Z,16.82
2022-09-22T11:24:03.361Z,15.15
2022-09-22T11:25:05.584Z,16.52
2022-09-22T11:26:07.800Z,17.12
2022-09-22T11:27:10.130Z,18.45
2022-09-22T11:28:12.527Z,20.86
2022-09-22T11:29:14.823Z,17.33
2022-09-22T11:30:17.062Z,17.46
2022-09-22T11:31:19.329Z,17.12
2022-09-22T11:32:21.628Z,17.99
2022-09-22T11:33:23.882Z,16.58
2022-09-22T11:34:26.064Z,16.48
2022-09-22T11:35:28.534Z,22.52
2022-09-22T11:36:31.025Z,17.51
2022-09-22T11:37:33.645Z,16.02
2022-09-22T11:38:35.900Z,18.08
2022-09-22T11:39:38.123Z,16.18
2022-09-22T11:40:40.613Z,19.96
2022-09-22T11:41:43.000Z,19.18
2022-09-22T11:42:45.402Z,25.20
2022-09-22T11:43:47.569Z,18.63
2022-09-22T11:44:50.490Z,22.55
2022-09-22T11:45:52.908Z,23.42
2022-09-22T11:46:55.148Z,18.67
2022-09-22T11:47:57.484Z,14.31
2022-09-22T11:48:59.711Z,14.10
2022-09-22T11:50:01.992Z,14.50
2022-09-22T11:51:04.198Z,17.11
2022-09-22T11:52:06.469Z,20.02
2022-09-22T11:53:08.877Z,18.22
2022-09-22T11:54:11.105Z,19.48
2022-09-22T11:55:13.361Z,15.32
2022-09-22T11:56:15.644Z,17.12
2022-09-22T11:57:17.903Z,14.69
2022-09-22T11:58:20.174Z,18.11
2022-09-22T11:59:22.427Z,14.40
2022-09-22T12:00:24.709Z,14.00
2022-09-22T12:01:26.951Z,15.12
2022-09-22T12:02:29.334Z,15.22
2022-09-22T12:03:31.770Z,12.63
2022-09-22T12:04:34.060Z,16.51
2022-09-22T12:05:36.529Z,17.17
2022-09-22T12:06:38.788Z,15.61
2022-09-22T12:07:41.004Z,15.66
2022-09-22T12:08:43.596Z,15.61
2022-09-22T12:09:47.489Z,14.55
2022-09-22T12:10:49.679Z,14.07
2022-09-22T12:11:51.926Z,17.50
2022-09-22T12:12:54.166Z,17.02
2022-09-22T12:13:56.591Z,12.20
2022-09-22T12:14:58.820Z,13.76
2022-09-22T12:16:01.460Z,12.95
2022-09-22T12:17:03.856Z,12.96
2022-09-22T12:18:09.135Z,15.39
2022-09-22T12:19:11.747Z,11.56
2022-09-22T12:20:14.012Z,15.22
2022-09-22T12:21:16.239Z,15.19
2022-09-22T12:22:18.454Z,15.34
2022-09-22T12:23:20.666Z,12.73
2022-09-22T12:24:23.081Z,15.82
2022-09-22T12:25:44.540Z,15.68
2022-09-22T12:26:29.101Z,14.69
2022-09-22T12:27:31.524Z,15.22
2022-09-22T12:28:34.024Z,19.05
2022-09-22T12:29:36.416Z,18.34
2022-09-22T12:30:39.085Z,17.28
2022-09-22T12:31:41.315Z,17.92
2022-09-22T12:32:43.539Z,9.37
2022-09-22T12:33:45.783Z,13.98
2022-09-22T12:34:48.213Z,14.63
2022-09-22T12:35:50.502Z,11.23
2022-09-22T12:36:53.160Z,12.18
2022-09-22T12:37:55.388Z,12.55
2022-09-22T12:38:59.259Z,13.82
2022-09-22T12:40:02.003Z,15.98
2022-09-22T12:41:04.456Z,14.01
2022-09-22T12:42:06.937Z,15.49
2022-09-22T12:43:09.444Z,12.55
2022-09-22T12:44:11.999Z,18.77
2022-09-22T12:45:14.243Z,17.95
2022-09-22T12:46:16.476Z,18.38
2022-09-22T12:47:18.997Z,21.00
2022-09-22T12:48:21.189Z,21.76
2022-09-22T12:49:23.399Z,20.16
2022-09-22T12:50:25.806Z,20.69
2022-09-22T12:51:28.011Z,20.12
2022-09-22T12:52:30.265Z,16.86
2022-09-22T12:53:32.652Z,18.54
2022-09-22T12:54:35.188Z,22.27
2022-09-22T12:55:37.549Z,15.48
2022-09-22T12:56:40.031Z,15.48
2022-09-22T12:57:42.263Z,18.59
2022-09-22T12:58:44.569Z,20.72
2022-09-22T12:59:47.014Z,20.71
2022-09-22T13:00:49.486Z,23.92
2022-09-22T13:01:51.817Z,24.40
2022-09-22T13:02:54.162Z,30.52
2022-09-22T13:03:56.380Z,23.41
2022-09-22T13:04:58.598Z,23.07
2022-09-22T13:06:00.768Z,25.99
2022-09-22T13:07:02.979Z,26.96
2022-09-22T13:08:05.196Z,24.67
2022-09-22T13:09:07.403Z,23.09
2022-09-22T13:10:09.979Z,20.78
2022-09-22T13:11:12.651Z,21.17
2022-09-22T13:12:15.034Z,22.74
2022-09-22T13:13:17.588Z,26.82
2022-09-22T13:14:20.002Z,21.96
2022-09-22T13:15:22.232Z,15.93
2022-09-22T13:16:24.504Z,22.30
2022-09-22T13:17:26.676Z,20.02
2022-09-22T13:18:28.919Z,19.73
2022-09-22T13:19:31.091Z,21.36
2022-09-22T13:20:33.364Z,23.42
2022-09-22T13:21:35.778Z,22.48
2022-09-22T13:22:37.973Z,21.96
2022-09-22T13:23:40.146Z,20.78
2022-09-22T13:24:42.363Z,23.94
2022-09-22T13:25:44.530Z,18.43
2022-09-22T13:26:46.993Z,15.84
2022-09-22T13:27:49.284Z,18.24
2022-09-22T13:28:51.541Z,19.34
2022-09-22T13:29:53.764Z,21.97
2022-09-22T13:30:56.037Z,21.04
2022-09-22T13:31:58.472Z,26.26
2022-09-22T13:33:00.905Z,26.98
2022-09-22T13:34:03.386Z,21.12
2022-09-22T13:35:05.603Z,18.37
2022-09-22T13:36:07.841Z,21.11
2022-09-22T13:37:10.069Z,19.94